Time;durP1;ratioP1;P1;durP2;ratioP2;P2;SDS_P1;SDS_P2;PMS_P1;PMS_P2;Temp;Humidity;BMP_temperature;BMP_pressure;BME280_temperature;BME280_humidity;BME280_pressure;Samples;Min_cycle;Max_cycle;Signal;HPM_P1;HPM_P2
2021/05/26 00:00:23;;;;;;;10.23;3.80;;;;;;;10.54;69.26;99172.93;125623;1104;103098;-73
2021/05/26 00:03:12;;;;;;;11.53;4.50;;;;;;;10.46;69.09;99179.73;126891;1104;100659;-73
2021/05/26 00:05:40;;;;;;;10.43;3.97;;;;;;;10.40;69.16;99175.70;125896;1101;103449;-74
2021/05/26 00:08:08;;;;;;;12.30;4.27;;;;;;;10.32;69.13;99184.20;125851;1097;103475;-74
2021/05/26 00:10:37;;;;;;;11.67;4.00;;;;;;;10.28;69.26;99180.05;125619;1096;102966;-73
2021/05/26 00:13:05;;;;;;;8.60;3.73;;;;;;;10.22;69.30;99183.97;125598;1102;102979;-73
2021/05/26 00:15:33;;;;;;;6.90;3.63;;;;;;;10.16;69.14;99186.20;125641;1101;102981;-74
2021/05/26 00:18:02;;;;;;;11.17;3.50;;;;;;;10.11;69.41;99192.69;125583;1102;102987;-73
2021/05/26 00:20:30;;;;;;;10.40;4.10;;;;;;;10.09;69.18;99199.08;125588;1104;103145;-73
2021/05/26 00:22:58;;;;;;;8.83;4.10;;;;;;;10.06;69.10;99201.95;125591;1097;103010;-74
2021/05/26 00:25:27;;;;;;;8.07;3.60;;;;;;;10.01;69.16;99202.24;125597;1104;102981;-74
2021/05/26 00:27:58;;;;;;;9.97;4.00;;;;;;;9.96;69.33;99210.54;125570;1105;103010;-74
2021/05/26 00:30:32;;;;;;;10.20;3.67;;;;;;;9.94;69.15;99214.27;125570;1104;102956;-72
2021/05/26 00:33:00;;;;;;;14.63;4.40;;;;;;;9.90;69.24;99210.11;125475;1104;102969;-73
2021/05/26 00:35:28;;;;;;;13.80;4.00;;;;;;;9.86;69.21;99208.62;125521;1104;103002;-73
2021/05/26 00:37:57;;;;;;;9.90;4.07;;;;;;;9.83;69.21;99210.53;125588;1101;102984;-73
2021/05/26 00:40:25;;;;;;;12.17;4.10;;;;;;;9.80;69.15;99212.52;125544;1096;103565;-73
2021/05/26 00:42:54;;;;;;;11.03;4.27;;;;;;;9.78;69.41;99223.27;125647;1104;102981;-73
2021/05/26 00:45:23;;;;;;;13.07;4.33;;;;;;;9.74;69.08;99219.11;125618;1101;103053;-72
2021/05/26 00:47:52;;;;;;;14.93;4.50;;;;;;;9.72;69.26;99209.55;125574;1102;103101;-74
2021/05/26 00:50:27;;;;;;;10.17;3.97;;;;;;;9.68;69.38;99214.20;125597;1104;102984;-72
2021/05/26 00:53:03;;;;;;;11.30;4.70;;;;;;;9.66;69.19;99218.76;125543;1097;103053;-72
2021/05/26 00:55:33;;;;;;;12.37;4.30;;;;;;;9.64;69.09;99218.01;125632;1104;103149;-73
2021/05/26 00:58:04;;;;;;;13.23;4.47;;;;;;;9.61;69.40;99219.08;125601;1104;102979;-73
2021/05/26 01:00:37;;;;;;;11.65;4.10;;;;;;;9.60;69.23;99216.51;125567;1097;103002;-74
2021/05/26 01:03:07;;;;;;;9.00;4.10;;;;;;;9.57;69.31;99222.05;125647;1104;103457;-73
2021/05/26 01:05:36;;;;;;;11.90;4.40;;;;;;;9.56;69.16;99229.16;125547;1104;103135;-74
2021/05/26 01:08:06;;;;;;;10.50;4.30;;;;;;;9.54;69.33;99231.05;125481;1104;103116;-75
2021/05/26 01:10:35;;;;;;;12.27;4.10;;;;;;;9.51;69.16;99224.16;125609;1101;103149;-73
2021/05/26 01:13:04;;;;;;;11.27;4.47;;;;;;;9.49;69.23;99222.53;125547;1102;103059;-74
2021/05/26 01:15:33;;;;;;;9.23;4.03;;;;;;;9.47;69.23;99227.09;125580;1104;102979;-73
2021/05/26 01:18:28;;;;;;;13.30;4.37;;;;;;;9.44;69.10;99229.95;125554;1104;103064;-75
2021/05/26 01:21:01;;;;;;;11.30;4.50;;;;;;;9.40;69.73;99231.97;125623;1104;103912;-73
2021/05/26 01:23:30;;;;;;;10.05;4.55;;;;;;;9.36;69.07;99231.33;127702;1104;101483;-73
2021/05/26 01:26:00;;;;;;;9.27;3.77;;;;;;;9.33;69.45;99230.66;127675;1104;100856;-72
2021/05/26 01:28:30;;;;;;;9.37;4.00;;;;;;;9.31;69.31;99232.55;127659;1104;101015;-74
2021/05/26 01:31:00;;;;;;;11.40;4.70;;;;;;;9.32;69.32;99240.44;126317;1104;102966;-74
2021/05/26 01:33:29;;;;;;;13.83;5.03;;;;;;;9.31;69.15;99243.17;127696;1104;100759;-74
2021/05/26 01:35:58;;;;;;;12.73;4.77;;;;;;;9.30;69.43;99241.47;127691;1104;101480;-74
2021/05/26 01:38:26;;;;;;;11.70;4.73;;;;;;;9.28;69.18;99241.59;125684;1104;103095;-74
2021/05/26 01:41:00;;;;;;;11.40;4.27;;;;;;;9.27;69.30;99245.19;125581;1104;102984;-74
2021/05/26 01:43:30;;;;;;;11.40;4.30;;;;;;;9.24;69.49;99243.56;125576;1104;102980;-75
2021/05/26 01:46:02;;;;;;;10.93;4.10;;;;;;;9.19;69.52;99245.66;125590;1097;103088;-72
2021/05/26 01:48:34;;;;;;;12.27;4.87;;;;;;;9.17;69.46;99246.72;125568;1097;103147;-73
2021/05/26 01:51:02;;;;;;;9.40;4.50;;;;;;;9.16;69.53;99245.02;125530;1104;103088;-75
2021/05/26 01:53:32;;;;;;;11.03;4.30;;;;;;;9.13;69.19;99245.21;125609;1104;103116;-72
2021/05/26 01:56:01;;;;;;;11.10;4.23;;;;;;;9.09;69.16;99239.27;125527;1097;104109;-73
2021/05/26 01:58:29;;;;;;;11.10;4.30;;;;;;;9.05;69.33;99251.02;125785;1101;102988;-71
2021/05/26 02:00:58;;;;;;;11.47;4.30;;;;;;;9.04;69.66;99263.42;125851;1101;103065;-72
2021/05/26 02:03:26;;;;;;;11.35;4.40;;;;;;;9.00;69.53;99261.91;125747;1096;103062;-71
2021/05/26 02:05:55;;;;;;;11.20;4.37;;;;;;;8.96;69.77;99263.08;125544;1097;103006;-74
2021/05/26 02:08:23;;;;;;;11.83;4.63;;;;;;;8.89;69.33;99257.28;125560;1097;103050;-73
2021/05/26 02:13:49;;;;;;;10.40;4.63;;;;;;;8.84;69.59;99266.48;125385;1103;103634;-73
2021/05/26 02:16:17;;;;;;;10.50;4.50;;;;;;;8.82;69.76;99255.95;125583;1096;103049;-72
2021/05/26 02:18:45;;;;;;;11.27;4.53;;;;;;;8.80;69.64;99257.84;125978;1096;103107;-72
2021/05/26 02:21:15;;;;;;;10.37;4.77;;;;;;;8.79;69.78;99261.45;125943;1101;103088;-72
2021/05/26 02:23:43;;;;;;;10.67;4.27;;;;;;;8.79;69.73;99258.80;125986;1101;103198;-72
2021/05/26 02:26:12;;;;;;;11.30;4.40;;;;;;;8.81;69.61;99259.55;125992;1101;103084;-72
2021/05/26 02:28:41;;;;;;;9.03;4.40;;;;;;;8.79;69.58;99258.80;125975;1101;103027;-73
2021/05/26 02:31:10;;;;;;;10.50;4.40;;;;;;;8.78;69.95;99257.96;125722;1096;103071;-71
2021/05/26 02:33:38;;;;;;;10.83;4.07;;;;;;;8.77;69.50;99261.56;125969;1101;103089;-71
2021/05/26 02:36:07;;;;;;;12.00;4.10;;;;;;;8.75;69.85;99255.50;125979;1096;102993;-72
2021/05/26 02:38:35;;;;;;;11.73;4.60;;;;;;;8.77;69.57;99268.65;125968;1101;103081;-73
2021/05/26 02:41:03;;;;;;;9.60;3.87;;;;;;;8.78;69.93;99268.57;125935;1101;103460;-71
2021/05/26 02:43:32;;;;;;;11.57;4.53;;;;;;;8.76;69.60;99272.28;126000;1101;103055;-72
2021/05/26 02:46:00;;;;;;;11.23;4.10;;;;;;;8.77;69.64;99274.82;125957;1101;103010;-73
2021/05/26 02:48:28;;;;;;;13.07;4.23;;;;;;;8.78;70.15;99281.83;125991;1101;103455;-73
2021/05/26 02:50:56;;;;;;;8.47;3.50;;;;;;;8.78;69.87;99283.61;125946;1096;103125;-73
2021/05/26 02:53:25;;;;;;;13.80;4.73;;;;;;;8.78;69.82;99288.92;125948;1101;102982;-73
2021/05/26 02:55:53;;;;;;;13.67;4.00;;;;;;;8.77;69.73;99289.86;125944;1101;103010;-72
2021/05/26 02:58:21;;;;;;;8.77;3.97;;;;;;;8.77;69.65;99296.04;125967;1101;102988;-72
2021/05/26 03:00:50;;;;;;;10.83;4.60;;;;;;;8.76;69.73;99299.64;125983;1101;102987;-72
2021/05/26 03:03:18;;;;;;;8.30;4.00;;;;;;;8.78;69.88;99297.75;125983;1101;102651;-72
2021/05/26 03:05:46;;;;;;;9.67;3.90;;;;;;;8.79;69.97;99303.89;125942;1101;103120;-71
2021/05/26 03:08:14;;;;;;;8.80;4.07;;;;;;;8.81;69.95;99307.30;125956;1101;103165;-73
2021/05/26 03:10:43;;;;;;;9.63;3.63;;;;;;;8.82;69.93;99295.74;125971;1101;103556;-73
2021/05/26 03:13:11;;;;;;;11.10;4.43;;;;;;;8.82;69.84;99290.44;125684;1101;103130;-73
2021/05/26 03:15:39;;;;;;;11.87;4.20;;;;;;;8.85;70.04;99303.52;125934;1101;103081;-72
2021/05/26 03:18:10;;;;;;;7.73;3.63;;;;;;;8.84;69.72;99300.97;125474;1102;103110;-73
2021/05/26 03:20:39;;;;;;;9.80;3.80;;;;;;;8.85;70.12;99316.77;126319;1101;102976;-72
2021/05/26 03:23:08;;;;;;;9.97;3.97;;;;;;;8.86;69.77;99307.03;125576;1097;103020;-71
2021/05/26 03:25:36;;;;;;;12.13;4.00;;;;;;;8.88;69.92;99302.48;125804;1101;103142;-72
2021/05/26 03:28:05;;;;;;;7.70;3.43;;;;;;;8.89;69.99;99304.20;125873;1096;102984;-72
2021/05/26 03:30:34;;;;;;;8.17;3.60;;;;;;;8.91;70.08;99307.61;125833;1101;102979;-72
2021/05/26 03:33:04;;;;;;;11.00;4.20;;;;;;;8.92;69.82;99301.35;125836;1101;102991;-71
2021/05/26 03:35:33;;;;;;;10.77;3.73;;;;;;;8.94;70.00;99310.07;125809;1101;103225;-72
2021/05/26 03:38:02;;;;;;;10.57;3.80;;;;;;;8.96;69.67;99310.83;125593;1104;103011;-72
2021/05/26 03:40:30;;;;;;;10.57;3.93;;;;;;;8.98;69.83;99318.67;125682;1097;103078;-73
2021/05/26 03:43:02;;;;;;;9.20;3.87;;;;;;;8.99;69.97;99312.42;125564;1104;103107;-73
2021/05/26 03:45:30;;;;;;;9.27;3.40;;;;;;;9.00;69.94;99319.44;125496;1103;103207;-72
2021/05/26 03:48:00;;;;;;;7.03;3.83;;;;;;;9.02;70.08;99322.84;125365;1101;103072;-70
2021/05/26 03:50:29;;;;;;;8.37;3.40;;;;;;;9.01;69.82;99326.45;125467;1104;103171;-71
2021/05/26 03:52:59;;;;;;;9.73;3.67;;;;;;;9.00;70.06;99322.92;125968;1096;101898;-74
2021/05/26 03:55:29;;;;;;;6.83;3.43;;;;;;;9.02;69.90;99328.99;125437;1101;103083;-72
2021/05/26 03:57:57;;;;;;;8.87;3.20;;;;;;;9.05;69.87;99325.31;125658;1101;103001;-72
2021/05/26 04:00:25;;;;;;;10.90;3.53;;;;;;;9.07;69.78;99332.22;125608;1097;103011;-73
2021/05/26 04:02:54;;;;;;;9.17;3.30;;;;;;;9.08;70.05;99328.61;125598;1096;103070;-72
2021/05/26 04:05:23;;;;;;;8.73;3.20;;;;;;;9.12;70.14;99329.30;125656;1101;103205;-73
2021/05/26 04:07:51;;;;;;;5.53;3.03;;;;;;;9.16;69.62;99329.94;125672;1101;103083;-73
2021/05/26 04:10:20;;;;;;;8.70;3.07;;;;;;;9.20;69.96;99328.80;125613;1096;103029;-73
2021/05/26 04:12:48;;;;;;;7.67;2.77;;;;;;;9.21;70.06;99323.39;125588;1103;103108;-70
2021/05/26 04:15:16;;;;;;;12.00;3.40;;;;;;;9.26;69.89;99327.55;125748;1101;103083;-71
2021/05/26 04:17:44;;;;;;;9.30;3.07;;;;;;;9.29;69.69;99325.58;125609;1097;103153;-73
2021/05/26 04:20:13;;;;;;;7.97;2.87;;;;;;;9.31;69.98;99325.47;125498;1096;103120;-71
2021/05/26 04:22:42;;;;;;;8.07;2.97;;;;;;;9.35;69.76;99326.98;125596;1096;102997;-71
2021/05/26 04:25:10;;;;;;;7.67;2.77;;;;;;;9.38;69.79;99337.41;125566;1104;103098;-72
2021/05/26 04:27:38;;;;;;;8.13;3.37;;;;;;;9.41;69.40;99341.66;125675;1097;102949;-72
2021/05/26 04:30:07;;;;;;;5.63;3.00;;;;;;;9.40;69.90;99338.16;125774;1101;102976;-72
2021/05/26 04:32:35;;;;;;;6.70;3.20;;;;;;;9.42;69.68;99343.36;125473;1096;103103;-70
2021/05/26 04:35:05;;;;;;;7.33;3.40;;;;;;;9.43;69.50;99343.28;125404;1102;103645;-68
2021/05/26 04:37:33;;;;;;;11.40;3.40;;;;;;;9.45;69.84;99340.52;125451;1102;103042;-69
2021/05/26 04:40:03;;;;;;;8.97;3.17;;;;;;;9.49;69.90;99331.41;125560;1104;103089;-69
2021/05/26 04:42:32;;;;;;;7.17;3.30;;;;;;;9.52;69.70;99341.83;125637;1101;103514;-71
2021/05/26 04:45:01;;;;;;;6.33;3.20;;;;;;;9.57;69.96;99339.73;125829;1096;103024;-70
2021/05/26 04:47:30;;;;;;;6.17;3.10;;;;;;;9.60;69.89;99342.20;125589;1096;103038;-70
2021/05/26 04:49:58;;;;;;;6.83;3.23;;;;;;;9.66;70.13;99338.28;125471;1104;102978;-71
2021/05/26 04:52:26;;;;;;;5.55;3.10;;;;;;;9.68;69.73;99344.34;125938;1101;103074;-71
2021/05/26 04:54:54;;;;;;;5.00;2.80;;;;;;;9.71;69.97;99338.00;125983;1096;103087;-71
2021/05/26 04:57:23;;;;;;;9.27;3.90;;;;;;;9.76;70.17;99349.19;125919;1101;102977;-71
2021/05/26 04:59:51;;;;;;;8.00;3.10;;;;;;;9.81;69.84;99347.05;125993;1096;103457;-70
2021/05/26 05:02:19;;;;;;;7.20;2.75;;;;;;;9.84;69.85;99346.86;125908;1096;103004;-71
2021/05/26 05:04:48;;;;;;;7.00;3.10;;;;;;;9.90;69.90;99351.77;126002;1101;102984;-71
2021/05/26 05:07:16;;;;;;;7.73;2.77;;;;;;;9.94;69.92;99347.13;125984;1101;103228;-70
2021/05/26 05:09:44;;;;;;;9.40;2.77;;;;;;;9.98;69.95;99352.13;125939;1101;102987;-70
2021/05/26 05:12:13;;;;;;;5.43;2.67;;;;;;;10.05;70.11;99362.36;125965;1101;103052;-70
2021/05/26 05:14:41;;;;;;;4.37;2.40;;;;;;;10.10;69.92;99368.23;125956;1096;103053;-70
2021/05/26 05:17:09;;;;;;;5.87;3.07;;;;;;;10.14;69.94;99367.08;125976;1101;103094;-70
2021/05/26 05:19:38;;;;;;;7.53;2.30;;;;;;;10.20;69.89;99363.14;125986;1101;103108;-70
2021/05/26 05:22:06;;;;;;;6.47;2.60;;;;;;;10.25;69.86;99369.85;125960;1101;103113;-70
2021/05/26 05:24:34;;;;;;;7.87;2.60;;;;;;;10.30;69.85;99366.03;125992;1101;103444;-70
2021/05/26 05:27:03;;;;;;;6.87;2.60;;;;;;;10.36;69.88;99371.81;125947;1101;103084;-70
2021/05/26 05:29:31;;;;;;;5.00;2.47;;;;;;;10.42;69.95;99367.91;125965;1101;103455;-70
2021/05/26 05:31:59;;;;;;;9.20;3.27;;;;;;;10.47;69.91;99371.12;125901;1101;103554;-69
2021/05/26 05:34:28;;;;;;;4.30;2.30;;;;;;;10.54;69.86;99371.55;125437;1097;103032;-70
2021/05/26 05:36:56;;;;;;;5.73;2.23;;;;;;;10.57;69.92;99369.55;125469;1097;103074;-70
2021/05/26 05:39:24;;;;;;;4.10;1.95;;;;;;;10.64;69.75;99366.44;125605;1104;103011;-69
2021/05/26 05:41:53;;;;;;;6.23;2.43;;;;;;;10.69;69.81;99362.53;125524;1104;103036;-70
2021/05/26 05:44:22;;;;;;;7.33;2.40;;;;;;;10.75;69.75;99363.91;125579;1104;103117;-70
2021/05/26 05:46:50;;;;;;;7.45;2.50;;;;;;;10.82;69.75;99366.98;125511;1104;103136;-72
2021/05/26 05:49:19;;;;;;;6.97;2.27;;;;;;;10.87;69.74;99365.73;125580;1104;103006;-70
2021/05/26 05:51:47;;;;;;;8.90;2.40;;;;;;;10.92;69.70;99377.87;125540;1104;103077;-71
2021/05/26 05:54:15;;;;;;;5.27;2.20;;;;;;;10.97;69.81;99384.56;125676;1102;103082;-72
2021/05/26 05:56:44;;;;;;;8.00;1.93;;;;;;;11.05;69.58;99381.36;125632;1097;103118;-73
2021/05/26 05:59:12;;;;;;;4.83;2.33;;;;;;;11.13;69.46;99381.68;125546;1104;102978;-71
2021/05/26 06:01:40;;;;;;;3.43;2.07;;;;;;;11.22;69.69;99382.83;125605;1101;103077;-69
2021/05/26 06:04:09;;;;;;;5.63;2.50;;;;;;;11.35;69.58;99387.30;125579;1104;103083;-73
2021/05/26 06:06:37;;;;;;;4.97;2.57;;;;;;;11.46;69.68;99392.73;125666;1102;103135;-69
2021/05/26 06:09:06;;;;;;;5.33;2.00;;;;;;;11.57;69.72;99392.81;125626;1104;103053;-71
2021/05/26 06:11:34;;;;;;;2.83;1.83;;;;;;;11.70;69.52;99386.58;125588;1102;103033;-71
2021/05/26 06:14:05;;;;;;;10.40;2.70;;;;;;;11.81;69.52;99385.83;125547;1104;103449;-72
2021/05/26 06:16:35;;;;;;;4.87;2.30;;;;;;;11.93;69.48;99384.07;125709;1097;102979;-72
2021/05/26 06:19:05;;;;;;;6.43;2.10;;;;;;;12.08;69.26;99377.62;125778;1101;103008;-72
2021/05/26 06:21:34;;;;;;;6.13;1.90;;;;;;;12.31;69.07;99373.23;125647;1101;103105;-71
2021/05/26 06:24:03;;;;;;;5.63;2.13;;;;;;;12.62;68.53;99370.94;125524;1101;103064;-72
2021/05/26 06:26:33;;;;;;;3.95;1.80;;;;;;;12.92;68.46;99369.53;125733;1101;103056;-70
2021/05/26 06:29:04;;;;;;;5.53;1.80;;;;;;;13.01;68.59;99375.13;125866;1101;103078;-70
2021/05/26 06:31:33;;;;;;;3.23;1.53;;;;;;;13.03;68.79;99381.20;125982;1096;103033;-71
2021/05/26 06:34:01;;;;;;;3.60;2.00;;;;;;;13.08;68.81;99395.02;125822;1101;103074;-71
2021/05/26 06:36:33;;;;;;;4.93;1.90;;;;;;;13.12;69.03;99390.30;125581;1101;103131;-70
2021/05/26 06:39:03;;;;;;;5.60;1.70;;;;;;;13.21;68.85;99384.24;125857;1101;103049;-69
2021/05/26 06:41:32;;;;;;;5.03;1.50;;;;;;;13.32;68.94;99391.41;125869;1097;103001;-71
2021/05/26 06:44:01;;;;;;;3.97;2.00;;;;;;;13.42;68.94;99386.20;125607;1096;103069;-71
2021/05/26 06:46:29;;;;;;;4.13;2.00;;;;;;;13.52;68.70;99384.50;125612;1101;102981;-70
2021/05/26 06:48:57;;;;;;;5.37;2.20;;;;;;;13.60;68.69;99382.07;125555;1097;103490;-70
2021/05/26 06:51:26;;;;;;;4.40;2.00;;;;;;;13.80;68.36;99379.59;125715;1096;103006;-70
2021/05/26 06:53:55;;;;;;;4.90;1.90;;;;;;;14.57;67.14;99365.19;125659;1096;102990;-71
2021/05/26 06:56:24;;;;;;;4.57;1.77;;;;;;;16.02;65.32;99363.44;125640;1102;102976;-71
2021/05/26 06:58:53;;;;;;;2.77;1.50;;;;;;;17.99;64.15;99367.30;125765;1096;103094;-70
2021/05/26 07:01:24;;;;;;;3.73;1.20;;;;;;;19.97;63.74;99368.77;125670;1101;103082;-71
2021/05/26 07:03:52;;;;;;;4.17;1.53;;;;;;;21.71;63.48;99364.89;125641;1102;103145;-69
2021/05/26 07:06:21;;;;;;;4.97;1.33;;;;;;;23.25;63.21;99355.03;125745;1097;103053;-70
2021/05/26 07:08:50;;;;;;;2.75;1.40;;;;;;;24.71;62.94;99353.30;125578;1097;102979;-70
2021/05/26 07:11:18;;;;;;;2.10;1.30;;;;;;;26.27;63.18;99345.72;125640;1096;103020;-69
2021/05/26 07:13:46;;;;;;;10.50;1.90;;;;;;;27.53;62.56;99344.16;125736;1101;103341;-72
2021/05/26 07:16:15;;;;;;;3.03;1.30;;;;;;;28.49;62.56;99347.81;125745;1101;103077;-69
2021/05/26 07:18:46;;;;;;;3.90;1.73;;;;;;;29.29;61.44;99353.61;125617;1101;103090;-68
2021/05/26 07:21:16;;;;;;;4.40;1.70;;;;;;;30.04;61.13;99356.31;125663;1096;103013;-69
2021/05/26 07:23:45;;;;;;;2.00;1.63;;;;;;;30.56;60.70;99347.52;125615;1104;103006;-70
2021/05/26 07:26:13;;;;;;;4.50;1.33;;;;;;;30.99;60.33;99348.27;125534;1104;103148;-70
2021/05/26 07:28:41;;;;;;;4.55;1.75;;;;;;;31.52;60.15;99354.67;125697;1102;103118;-69
2021/05/26 07:31:10;;;;;;;4.33;1.30;;;;;;;31.85;59.69;99353.15;125476;1096;103053;-68
2021/05/26 07:33:38;;;;;;;4.77;1.37;;;;;;;32.33;59.63;99351.05;125496;1096;103010;-69
2021/05/26 07:36:07;;;;;;;2.60;1.50;;;;;;;32.77;58.59;99342.11;125609;1097;103001;-70
2021/05/26 07:38:40;;;;;;;2.80;1.50;;;;;;;33.02;58.33;99345.53;125545;1104;103579;-69
2021/05/26 07:41:09;;;;;;;4.00;1.23;;;;;;;33.80;57.72;99339.11;125640;1101;103010;-70
2021/05/26 07:43:37;;;;;;;4.77;1.60;;;;;;;33.91;56.70;99340.04;125829;1101;103117;-70
2021/05/26 07:46:06;;;;;;;2.67;1.03;;;;;;;33.79;55.89;99341.02;125660;1097;103445;-70
2021/05/26 07:48:36;;;;;;;3.00;1.03;;;;;;;33.66;55.72;99341.41;125975;1101;103007;-70
2021/05/26 07:51:05;;;;;;;4.03;1.03;;;;;;;33.41;55.42;99342.77;125914;1101;103456;-71
2021/05/26 07:53:34;;;;;;;1.70;1.33;;;;;;;33.05;53.88;99334.82;125958;1101;103104;-70
2021/05/26 07:56:02;;;;;;;3.70;1.43;;;;;;;33.10;54.42;99329.38;125770;1101;103094;-70
2021/05/26 07:58:31;;;;;;;2.47;1.20;;;;;;;33.32;53.36;99334.09;125778;1101;102982;-70
2021/05/26 08:00:59;;;;;;;2.73;1.20;;;;;;;32.88;52.12;99336.79;125618;1104;104589;-70
2021/05/26 08:03:28;;;;;;;4.57;1.27;;;;;;;32.68;52.30;99331.78;125575;1096;103109;-71
2021/05/26 08:05:56;;;;;;;3.23;1.30;;;;;;;32.95;51.99;99326.44;125911;1101;103009;-70
2021/05/26 08:08:25;;;;;;;1.67;1.27;;;;;;;33.13;51.15;99330.81;125571;1101;103171;-70
2021/05/26 08:10:53;;;;;;;3.30;1.33;;;;;;;33.01;50.85;99324.57;125562;1104;102978;-70
2021/05/26 08:13:21;;;;;;;1.60;1.00;;;;;;;33.12;51.09;99320.88;125693;1096;103075;-72
2021/05/26 08:15:50;;;;;;;3.83;1.00;;;;;;;33.71;50.88;99330.44;125801;1096;103125;-71
2021/05/26 08:18:21;;;;;;;3.27;1.33;;;;;;;34.42;50.41;99326.76;125747;1096;103103;-70
2021/05/26 08:20:50;;;;;;;3.80;1.20;;;;;;;34.14;49.25;99328.70;125746;1096;102981;-70
2021/05/26 08:23:18;;;;;;;4.73;1.20;;;;;;;34.00;48.93;99335.76;125701;1101;103053;-71
2021/05/26 08:25:47;;;;;;;1.97;1.27;;;;;;;34.10;48.09;99330.31;125829;1096;103009;-70
2021/05/26 08:28:16;;;;;;;3.13;1.20;;;;;;;33.82;47.95;99332.22;125557;1101;103458;-72
2021/05/26 08:30:45;;;;;;;4.10;1.40;;;;;;;33.49;46.93;99327.70;125648;1103;103123;-70
2021/05/26 08:33:14;;;;;;;1.77;0.80;;;;;;;33.09;45.67;99327.72;125627;1104;103117;-71
2021/05/26 08:35:42;;;;;;;3.17;0.87;;;;;;;31.92;42.52;99331.02;125778;1096;103123;-71
2021/05/26 08:38:10;;;;;;;2.17;1.47;;;;;;;31.06;44.02;99328.91;125735;1101;103053;-71
2021/05/26 08:40:39;;;;;;;2.87;1.30;;;;;;;31.26;44.59;99332.16;125534;1104;103056;-71
2021/05/26 08:43:08;;;;;;;2.87;1.30;;;;;;;31.74;44.24;99329.30;125674;1097;103074;-70
2021/05/26 08:45:36;;;;;;;3.97;1.27;;;;;;;31.83;43.85;99330.56;125680;1101;103081;-70
2021/05/26 08:48:08;;;;;;;3.43;1.17;;;;;;;31.77;43.24;99329.63;125901;1101;103033;-71
2021/05/26 08:50:37;;;;;;;1.77;1.20;;;;;;;31.77;42.91;99326.06;125569;1104;103068;-71
2021/05/26 08:53:06;;;;;;;6.03;1.40;;;;;;;31.47;42.27;99318.83;125562;1096;103109;-72
2021/05/26 08:55:35;;;;;;;1.70;1.10;;;;;;;31.30;41.69;99311.36;125606;1096;103056;-72
2021/05/26 08:58:04;;;;;;;3.40;1.13;;;;;;;30.56;40.47;99315.41;125555;1097;103006;-72
2021/05/26 09:00:32;;;;;;;1.80;1.07;;;;;;;30.36;40.80;99318.48;125935;1101;102984;-71
2021/05/26 09:03:05;;;;;;;2.47;1.00;;;;;;;30.15;40.38;99308.90;125767;1096;103009;-71
2021/05/26 09:05:34;;;;;;;1.57;1.00;;;;;;;29.68;39.40;99318.60;125670;1101;103104;-71
2021/05/26 09:08:17;;;;;;;2.13;1.20;;;;;;;29.63;39.71;99314.89;125881;1101;103077;-70
2021/05/26 09:10:47;;;;;;;4.37;1.30;;;;;;;29.35;38.90;99319.84;125691;1096;103113;-71
2021/05/26 09:13:45;;;;;;;3.83;1.13;;;;;;;29.37;39.32;99314.14;125660;1102;103033;-70
2021/05/26 09:16:23;;;;;;;3.67;0.63;;;;;;;29.77;39.59;99316.36;125501;1104;102976;-71
2021/05/26 09:19:01;;;;;;;2.07;0.97;;;;;;;30.28;39.17;99308.70;125882;1101;103147;-71
2021/05/26 09:21:41;;;;;;;4.20;1.00;;;;;;;30.55;39.16;99310.17;125940;1096;103057;-72
2021/05/26 09:24:27;;;;;;;3.43;1.03;;;;;;;30.85;38.75;99309.24;125620;1104;102982;-71
2021/05/26 09:27:02;;;;;;;1.70;1.60;;;;;;;30.65;38.25;99295.88;125759;1096;103076;-71
2021/05/26 09:29:40;;;;;;;2.50;1.30;;;;;;;30.52;38.23;99297.74;125504;1104;103106;-71
2021/05/26 09:32:21;;;;;;;1.77;0.80;;;;;;;30.59;38.29;99290.27;125765;1101;103052;-70
2021/05/26 09:34:57;;;;;;;3.10;1.45;;;;;;;31.07;38.77;99275.65;125563;1097;102984;-71
2021/05/26 09:37:29;;;;;;;2.35;0.80;;;;;;;30.89;37.36;99278.30;125887;1101;103008;-71
2021/05/26 09:40:03;;;;;;;2.25;1.20;;;;;;;30.18;37.11;99286.48;125829;1096;103057;-70
2021/05/26 09:42:36;;;;;;;3.93;1.23;;;;;;;29.62;36.57;99294.03;125555;1104;103016;-70
2021/05/26 09:45:07;;;;;;;1.60;0.70;;;;;;;29.53;37.11;99288.05;125580;1104;102980;-70
2021/05/26 09:47:55;;;;;;;1.87;1.20;;;;;;;29.24;36.14;99279.51;125724;1101;103192;-70
2021/05/26 09:50:33;;;;;;;1.80;1.00;;;;;;;29.57;37.21;99281.01;125612;1101;103059;-71
2021/05/26 09:53:06;;;;;;;2.97;1.23;;;;;;;29.80;36.76;99271.22;125654;1097;103053;-70
2021/05/26 09:55:46;;;;;;;4.17;1.30;;;;;;;29.66;35.55;99279.63;125982;1101;103124;-70
2021/05/26 09:58:17;;;;;;;5.77;1.13;;;;;;;28.99;35.60;99277.70;125892;1101;103009;-71
2021/05/26 10:00:48;;;;;;;5.43;1.50;;;;;;;28.47;35.67;99277.98;125946;1096;103086;-68
2021/05/26 10:03:16;;;;;;;2.00;1.13;;;;;;;28.26;36.50;99271.01;125855;1101;103146;-72
2021/05/26 10:05:45;;;;;;;3.50;1.17;;;;;;;28.03;35.56;99269.66;125886;1096;103085;-70
2021/05/26 10:08:14;;;;;;;1.13;0.80;;;;;;;27.24;35.46;99270.70;125560;1104;103010;-70
2021/05/26 10:10:47;;;;;;;1.57;0.90;;;;;;;26.68;35.39;99264.75;125807;1101;103127;-71
2021/05/26 10:13:20;;;;;;;5.63;1.20;;;;;;;26.12;35.08;99264.11;125714;1101;103001;-72
2021/05/26 10:15:50;;;;;;;2.33;0.93;;;;;;;25.39;34.33;99262.87;125558;1104;103072;-71
2021/05/26 10:18:18;;;;;;;2.60;0.70;;;;;;;24.78;34.01;99260.89;125739;1101;102981;-70
2021/05/26 10:20:48;;;;;;;2.33;1.23;;;;;;;24.25;34.15;99262.16;125731;1101;103040;-70
2021/05/26 10:23:19;;;;;;;6.40;1.20;;;;;;;23.73;33.97;99265.00;125580;1104;103007;-70
2021/05/26 10:25:53;;;;;;;2.30;1.30;;;;;;;23.37;33.66;99257.72;126905;1097;101106;-71
2021/05/26 10:28:31;;;;;;;2.40;0.80;;;;;;;23.14;33.37;99258.64;125578;1096;103043;-70
2021/05/26 10:31:05;;;;;;;2.70;1.00;;;;;;;22.92;33.55;99249.58;125585;1104;103641;-72
2021/05/26 10:33:43;;;;;;;1.33;0.73;;;;;;;22.63;33.06;99253.13;125593;1104;102978;-70
2021/05/26 10:36:11;;;;;;;5.33;1.07;;;;;;;22.39;33.66;99249.62;125901;1101;103084;-71
2021/05/26 10:38:55;;;;;;;4.73;1.17;;;;;;;22.32;33.04;99244.10;125647;1101;103039;-70
2021/05/26 10:41:26;;;;;;;5.60;1.60;;;;;;;21.91;32.90;99258.82;125835;1101;102978;-70
2021/05/26 10:43:56;;;;;;;3.97;0.90;;;;;;;21.70;33.33;99240.52;125523;1102;103126;-71
2021/05/26 10:46:38;;;;;;;1.27;0.90;;;;;;;21.73;33.28;99242.05;125516;1101;103516;-70
2021/05/26 10:49:09;;;;;;;4.13;0.80;;;;;;;21.68;33.19;99242.57;125511;1101;103139;-71
2021/05/26 10:52:04;;;;;;;4.30;0.90;;;;;;;21.63;33.61;99232.30;125554;1101;103432;-70
2021/05/26 10:54:38;;;;;;;5.23;1.07;;;;;;;21.63;33.07;99234.14;125379;1102;103075;-71
2021/05/26 10:57:11;;;;;;;3.70;0.90;;;;;;;21.69;33.24;99225.30;125828;1101;103076;-70
2021/05/26 10:59:39;;;;;;;2.33;1.20;;;;;;;21.74;33.42;99224.78;125477;1104;102979;-69
2021/05/26 11:02:16;;;;;;;1.13;0.77;;;;;;;21.77;32.87;99224.42;125677;1101;103005;-69
2021/05/26 11:04:50;;;;;;;2.23;0.87;;;;;;;21.48;32.84;99228.63;125426;1096;103206;-71
2021/05/26 11:07:25;;;;;;;2.27;1.07;;;;;;;21.42;33.14;99225.61;125869;1101;103076;-71
2021/05/26 11:09:57;;;;;;;1.10;0.67;;;;;;;21.38;32.84;99232.43;125645;1101;103037;-70
2021/05/26 11:12:54;;;;;;;3.93;0.90;;;;;;;21.39;32.95;99234.11;125461;1101;103039;-72
2021/05/26 11:15:44;;;;;;;1.70;0.80;;;;;;;21.37;32.97;99221.77;127205;1101;103019;-72
2021/05/26 11:20:54;;;;;;;3.37;1.10;;;;;;;21.10;32.76;99213.95;125651;1101;103025;-71
2021/05/26 11:23:23;;;;;;;3.53;1.20;;;;;;;21.09;32.94;99204.16;126036;1101;102985;-71
2021/05/26 11:25:53;;;;;;;2.23;1.03;;;;;;;21.09;32.70;99206.86;127643;1102;102247;-71
2021/05/26 11:28:37;;;;;;;1.37;1.00;;;;;;;21.08;32.73;99202.47;125914;1101;103138;-75
2021/05/26 11:31:09;;;;;;;5.47;1.60;;;;;;;21.01;32.41;99201.48;125715;1102;103155;-71
2021/05/26 11:33:39;;;;;;;4.07;1.30;;;;;;;20.93;32.91;99204.25;125659;1101;102981;-71
2021/05/26 11:36:11;;;;;;;2.27;0.97;;;;;;;20.93;32.72;99201.55;125662;1096;103010;-71
2021/05/26 11:38:39;;;;;;;1.33;1.00;;;;;;;20.89;32.75;99195.63;125585;1104;103503;-73